Time,TemperatureF,DewpointF,PressureIn,WindDirection,WindDirectionDegrees,WindSpeedMPH,WindSpeedGustMPH,Humidity,HourlyPrecipIn,Conditions,Clouds,dailyrainin,SoftwareType,DateUTC
2013-08-05 00:01:00,74.6,71.2,30.07,ESE,121,1.5,6.0,89,0.00,,,0.00,VWS V14.01,2013-08-05 05:01:00,
2013-08-05 00:06:00,74.7,71.2,30.07,SE,137,3.0,6.0,89,0.00,,,0.00,VWS V14.01,2013-08-05 05:06:00,
2013-08-05 00:11:00,74.7,71.2,30.07,SSE,167,7.5,7.5,89,0.00,,,0.00,VWS V14.01,2013-08-05 05:11:00,
2013-08-05 00:16:00,74.7,70.9,30.08,SSW,210,1.5,7.0,88,0.00,,,0.00,VWS V14.01,2013-08-05 05:16:00,
2013-08-05 00:21:00,74.7,70.9,30.08,South,188,3.0,7.0,88,0.00,,,0.00,VWS V14.01,2013-08-05 05:21:00,
2013-08-05 00:26:00,74.7,70.9,30.08,SE,127,1.5,7.0,88,0.00,,,0.00,VWS V14.01,2013-08-05 05:26:00,
2013-08-05 00:31:00,74.7,70.9,30.08,SSW,193,1.5,7.0,88,0.00,,,0.00,VWS V14.01,2013-08-05 05:31:00,
2013-08-05 00:35:00,74.7,70.9,30.07,SE,142,0.0,7.0,88,0.00,,,0.00,VWS V14.01,2013-08-05 05:35:00,
2013-08-05 00:41:00,74.7,70.9,30.07,SW,214,4.5,7.0,88,0.00,,,0.00,VWS V14.01,2013-08-05 05:41:00,
2013-08-05 00:46:00,74.7,70.6,30.06,South,169,7.5,7.5,87,0.00,,,0.00,VWS V14.01,2013-08-05 05:46:00,
2013-08-05 00:51:00,74.7,70.6,30.06,South,176,4.5,7.0,87,0.00,,,0.00,VWS V14.01,2013-08-05 05:51:00,
2013-08-05 00:56:00,74.7,70.6,30.06,South,169,0.0,7.0,87,0.00,,,0.00,VWS V14.01,2013-08-05 05:56:00,
2013-08-05 01:01:00,74.8,70.7,30.06,South,187,3.0,7.0,87,0.00,,,0.00,VWS V14.01,2013-08-05 06:01:00,
2013-08-05 01:06:00,74.8,70.7,30.06,SSW,203,6.0,7.0,87,0.00,,,0.00,VWS V14.01,2013-08-05 06:06:00,
2013-08-05 01:11:00,74.8,70.7,30.05,SE,146,4.5,9.0,87,0.00,,,0.00,VWS V14.01,2013-08-05 06:11:00,
2013-08-05 01:16:00,74.8,70.7,30.05,SSE,152,3.0,9.0,87,0.00,,,0.00,VWS V14.01,2013-08-05 06:16:00,
2013-08-05 01:21:00,74.8,70.7,30.05,SE,141,9.0,9.0,87,0.00,,,0.00,VWS V14.01,2013-08-05 06:21:00,
2013-08-05 01:25:00,74.8,70.7,30.05,SSE,155,3.0,9.0,87,0.00,,,0.00,VWS V14.01,2013-08-05 06:25:00,
2013-08-05 01:31:00,74.8,70.7,30.05,SSW,194,10.5,10.5,87,0.00,,,0.00,VWS V14.01,2013-08-05 06:31:00,
2013-08-05 01:36:00,74.8,70.7,30.05,South,183,4.5,9.0,87,0.00,,,0.00,VWS V14.01,2013-08-05 06:36:00,
2013-08-05 01:41:00,74.7,70.6,30.06,SSE,158,1.5,9.0,87,0.00,,,0.00,VWS V14.01,2013-08-05 06:41:00,
2013-08-05 01:46:00,74.8,70.7,30.05,SSE,163,6.0,9.0,87,0.00,,,0.00,VWS V14.01,2013-08-05 06:46:00,
2013-08-05 01:50:00,74.8,70.7,30.05,SSW,207,6.0,9.0,87,0.00,,,0.00,VWS V14.01,2013-08-05 06:50:00,
2013-08-05 01:56:00,74.8,70.7,30.05,SSE,152,3.0,9.0,87,0.00,,,0.00,VWS V14.01,2013-08-05 06:56:00,
2013-08-05 02:00:00,74.8,70.7,30.05,SSE,165,3.0,9.0,87,0.00,,,0.00,VWS V14.01,2013-08-05 07:00:00,
2013-08-05 02:01:00,74.8,71.0,30.05,South,177,0.0,3.0,88,0.00,,,0.00,VWS V14.01,2013-08-05 07:01:00,
2013-08-05 02:06:00,74.8,71.0,30.05,South,174,4.5,5.0,88,0.00,,,0.00,VWS V14.01,2013-08-05 07:06:00,
2013-08-05 02:11:00,74.7,70.9,30.04,SSE,147,1.5,8.0,88,0.00,,,0.00,VWS V14.01,2013-08-05 07:11:00,
2013-08-05 02:16:00,74.7,70.9,30.04,ENE,72,1.5,8.0,88,0.00,,,0.00,VWS V14.01,2013-08-05 07:16:00,
2013-08-05 02:20:00,74.6,70.8,30.04,SE,132,1.5,8.0,88,0.00,,,0.00,VWS V14.01,2013-08-05 07:20:00,
2013-08-05 02:26:00,74.6,70.8,30.04,SSE,150,1.5,8.0,88,0.00,,,0.00,VWS V14.01,2013-08-05 07:26:00,
2013-08-05 02:31:00,74.6,70.8,30.04,SE,136,1.5,8.0,88,0.00,,,0.00,VWS V14.01,2013-08-05 07:31:00,
2013-08-05 02:36:00,74.5,71.1,30.04,SE,135,3.0,8.0,89,0.00,,,0.00,VWS V14.01,2013-08-05 07:36:00,
2013-08-05 02:41:00,74.5,71.1,30.04,South,186,3.0,8.0,89,0.00,,,0.00,VWS V14.01,2013-08-05 07:41:00,
2013-08-05 02:46:00,74.4,70.9,30.04,South,176,1.5,8.0,89,0.00,,,0.00,VWS V14.01,2013-08-05 07:46:00,
2013-08-05 02:51:00,74.4,70.9,30.03,SSE,161,1.5,8.0,89,0.00,,,0.00,VWS V14.01,2013-08-05 07:51:00,
2013-08-05 02:55:00,74.4,70.9,30.03,East,95,1.5,8.0,89,0.00,,,0.00,VWS V14.01,2013-08-05 07:55:00,
2013-08-05 03:00:00,74.4,71.3,30.03,South,172,1.5,8.0,90,0.00,,,0.00,VWS V14.01,2013-08-05 08:00:00,
2013-08-05 03:05:00,74.4,71.3,30.04,SSE,162,0.0,8.0,90,0.00,,,0.00,VWS V14.01,2013-08-05 08:05:00,
2013-08-05 03:10:00,74.4,71.3,30.04,SSE,156,0.0,8.0,90,0.00,,,0.00,VWS V14.01,2013-08-05 08:10:00,
2013-08-05 03:15:00,74.3,71.2,30.05,NW,321,3.0,8.0,90,0.00,,,0.00,VWS V14.01,2013-08-05 08:15:00,
2013-08-05 03:20:00,74.3,71.5,30.05,NW,321,0.0,8.0,91,0.00,,,0.00,VWS V14.01,2013-08-05 08:20:00,
2013-08-05 03:25:00,74.2,71.4,30.05,NW,321,0.0,8.0,91,0.00,,,0.00,VWS V14.01,2013-08-05 08:25:00,
2013-08-05 03:30:00,74.0,71.2,30.04,NW,322,0.0,8.0,91,0.00,,,0.00,VWS V14.01,2013-08-05 08:30:00,
2013-08-05 03:35:00,73.9,71.8,30.04,South,179,0.0,8.0,93,0.10,,,0.10,VWS V14.01,2013-08-05 08:35:00,
2013-08-05 03:40:00,73.6,71.8,30.04,South,179,0.0,8.0,94,0.13,,,0.13,VWS V14.01,2013-08-05 08:40:00,
2013-08-05 03:46:00,73.2,71.7,30.03,SSE,166,3.0,8.0,95,0.13,,,0.13,VWS V14.01,2013-08-05 08:46:00,
2013-08-05 03:51:00,73.2,72.0,30.03,SSE,163,6.0,8.0,96,0.15,,,0.15,VWS V14.01,2013-08-05 08:51:00,
2013-08-05 03:56:00,73.6,72.4,30.02,SW,218,4.5,8.0,96,0.17,,,0.17,VWS V14.01,2013-08-05 08:56:00,
2013-08-05 04:00:00,73.8,72.3,30.02,South,183,12.0,12.0,95,0.18,,,0.18,VWS V14.01,2013-08-05 09:00:00,
2013-08-05 04:01:00,73.9,72.4,30.02,SSW,203,1.5,8.0,95,0.00,,,0.18,VWS V14.01,2013-08-05 09:01:00,
2013-08-05 04:06:00,74.0,72.5,30.02,SSW,198,3.0,11.0,95,0.01,,,0.19,VWS V14.01,2013-08-05 09:06:00,
2013-08-05 04:11:00,74.1,72.6,30.02,South,169,3.0,11.0,95,0.01,,,0.19,VWS V14.01,2013-08-05 09:11:00,
2013-08-05 04:16:00,74.1,72.6,30.02,SSW,201,3.0,11.0,95,0.02,,,0.20,VWS V14.01,2013-08-05 09:16:00,
2013-08-05 04:21:00,74.1,72.6,30.03,ESE,117,0.0,11.0,95,0.02,,,0.20,VWS V14.01,2013-08-05 09:21:00,
2013-08-05 04:26:00,73.9,72.7,30.03,SSE,161,0.0,11.0,96,0.02,,,0.20,VWS V14.01,2013-08-05 09:26:00,
2013-08-05 04:31:00,73.8,72.6,30.03,SSE,160,0.0,11.0,96,0.02,,,0.20,VWS V14.01,2013-08-05 09:31:00,
2013-08-05 04:37:00,73.7,72.5,30.03,SSE,160,0.0,11.0,96,0.02,,,0.20,VWS V14.01,2013-08-05 09:37:00,
2013-08-05 04:42:00,73.7,72.5,30.03,South,169,3.0,11.0,96,0.02,,,0.20,VWS V14.01,2013-08-05 09:42:00,
2013-08-05 04:46:00,73.8,72.6,30.02,SSE,164,0.0,11.0,96,0.02,,,0.20,VWS V14.01,2013-08-05 09:46:00,
2013-08-05 04:52:00,73.8,72.6,30.02,SSE,150,1.5,11.0,96,0.02,,,0.20,VWS V14.01,2013-08-05 09:52:00,
2013-08-05 04:57:00,73.9,72.7,30.01,South,169,1.5,11.0,96,0.02,,,0.20,VWS V14.01,2013-08-05 09:57:00,
2013-08-05 05:00:00,73.8,72.3,30.02,South,183,12.0,12.0,95,0.18,,,0.18,VWS V15.00,2013-08-05 10:00:00,
2013-08-05 05:02:00,74.0,72.8,30.01,SSE,158,4.5,11.0,96,0.02,,,0.20,VWS V14.01,2013-08-05 10:02:00,
2013-08-05 05:07:00,74.0,72.8,30.02,South,186,3.0,11.0,96,0.02,,,0.20,VWS V14.01,2013-08-05 10:07:00,
2013-08-05 05:12:00,74.1,72.6,30.02,South,173,1.5,11.0,95,0.02,,,0.20,VWS V14.01,2013-08-05 10:12:00,
2013-08-05 05:17:00,74.1,72.6,30.02,South,174,3.0,11.0,95,0.02,,,0.20,VWS V14.01,2013-08-05 10:17:00,
2013-08-05 05:22:00,74.1,72.6,30.02,SE,139,0.0,11.0,95,0.02,,,0.20,VWS V14.01,2013-08-05 10:22:00,
2013-08-05 05:28:00,74.2,72.7,30.02,SSE,155,0.0,11.0,95,0.02,,,0.20,VWS V14.01,2013-08-05 10:28:00,
2013-08-05 05:33:00,74.0,72.5,30.02,SSE,150,0.0,11.0,95,0.02,,,0.20,VWS V14.01,2013-08-05 10:33:00,
2013-08-05 05:38:00,73.9,72.7,30.02,SSE,149,0.0,11.0,96,0.02,,,0.20,VWS V14.01,2013-08-05 10:38:00,
2013-08-05 05:43:00,73.8,72.6,30.02,SSE,150,0.0,11.0,96,0.02,,,0.20,VWS V14.01,2013-08-05 10:43:00,
2013-08-05 05:48:00,73.6,72.4,30.03,SSE,150,0.0,11.0,96,0.02,,,0.20,VWS V14.01,2013-08-05 10:48:00,
2013-08-05 05:53:00,73.6,72.4,30.03,SSE,162,0.0,11.0,96,0.02,,,0.20,VWS V14.01,2013-08-05 10:53:00,
2013-08-05 05:58:00,73.5,72.6,30.02,South,179,1.5,11.0,97,0.02,,,0.20,VWS V14.01,2013-08-05 10:58:00,
2013-08-05 06:00:00,73.5,72.6,30.02,South,180,4.5,11.0,97,0.02,,,0.20,VWS V14.01,2013-08-05 11:00:00,
2013-08-05 06:03:00,73.6,72.4,30.02,South,171,4.5,6.0,96,0.00,,,0.20,VWS V14.01,2013-08-05 11:03:00,
2013-08-05 06:08:00,73.8,72.6,30.02,SSE,154,3.0,6.0,96,0.00,,,0.20,VWS V14.01,2013-08-05 11:08:00,
2013-08-05 06:13:00,73.9,72.7,30.02,South,172,0.0,6.0,96,0.00,,,0.20,VWS V14.01,2013-08-05 11:13:00,
2013-08-05 06:18:00,74.0,72.5,30.03,South,181,0.0,6.0,95,0.00,,,0.20,VWS V14.01,2013-08-05 11:18:00,
2013-08-05 06:23:00,74.1,72.9,30.03,South,173,1.5,6.0,96,0.00,,,0.20,VWS V14.01,2013-08-05 11:23:00,
2013-08-05 06:28:00,74.2,72.7,30.03,SSE,158,0.0,6.0,95,0.00,,,0.20,VWS V14.01,2013-08-05 11:28:00,
2013-08-05 06:33:00,74.2,72.7,30.03,South,169,4.5,6.0,95,0.00,,,0.20,VWS V14.01,2013-08-05 11:33:00,
2013-08-05 06:38:00,74.5,73.0,30.03,SSW,204,3.0,6.0,95,0.00,,,0.20,VWS V14.01,2013-08-05 11:38:00,
2013-08-05 06:43:00,74.6,72.8,30.03,South,174,0.0,6.0,94,0.00,,,0.20,VWS V14.01,2013-08-05 11:43:00,
2013-08-05 06:48:00,74.6,73.1,30.04,SSE,159,0.0,6.0,95,0.00,,,0.20,VWS V14.01,2013-08-05 11:48:00,
2013-08-05 06:53:00,74.5,73.0,30.04,SSE,153,0.0,6.0,95,0.00,,,0.20,VWS V14.01,2013-08-05 11:53:00,
2013-08-05 06:58:00,74.3,73.1,30.05,SSE,152,0.0,6.0,96,0.00,,,0.20,VWS V14.01,2013-08-05 11:58:00,
2013-08-05 07:00:00,73.5,72.6,30.02,South,180,4.5,11.0,97,0.02,,,0.20,VWS V15.00,2013-08-05 12:00:00,
2013-08-05 07:03:00,74.1,72.9,30.06,SSE,152,0.0,6.0,96,0.00,,,0.20,VWS V14.01,2013-08-05 12:03:00,
2013-08-05 07:08:00,74.0,72.8,30.06,SSE,153,0.0,6.0,96,0.00,,,0.20,VWS V14.01,2013-08-05 12:08:00,
2013-08-05 07:13:00,73.9,73.0,30.05,SSE,163,1.5,6.0,97,0.00,,,0.20,VWS V14.01,2013-08-05 12:13:00,
2013-08-05 07:18:00,73.9,73.0,30.05,SSE,165,0.0,6.0,97,0.00,,,0.20,VWS V14.01,2013-08-05 12:18:00,
2013-08-05 07:23:00,73.8,72.9,30.04,SSE,165,0.0,6.0,97,0.00,,,0.20,VWS V14.01,2013-08-05 12:23:00,
2013-08-05 07:28:00,73.8,72.9,30.04,South,188,0.0,6.0,97,0.00,,,0.20,VWS V14.01,2013-08-05 12:28:00,
2013-08-05 07:33:00,73.8,72.9,30.04,SSE,162,0.0,6.0,97,0.00,,,0.20,VWS V14.01,2013-08-05 12:33:00,
2013-08-05 07:38:00,73.8,72.9,30.04,SSE,159,0.0,6.0,97,0.01,,,0.21,VWS V14.01,2013-08-05 12:38:00,
2013-08-05 07:43:00,73.8,72.9,30.04,SSE,159,0.0,6.0,97,0.01,,,0.21,VWS V14.01,2013-08-05 12:43:00,
2013-08-05 07:48:00,73.8,72.9,30.05,SSE,159,0.0,6.0,97,0.01,,,0.21,VWS V14.01,2013-08-05 12:48:00,
2013-08-05 07:54:00,73.8,73.2,30.04,SSE,159,0.0,6.0,98,0.02,,,0.22,VWS V14.01,2013-08-05 12:54:00,
2013-08-05 07:59:00,73.9,73.3,30.04,SSE,148,0.0,6.0,98,0.02,,,0.22,VWS V14.01,2013-08-05 12:59:00,
2013-08-05 08:00:00,73.9,73.3,30.04,SE,146,0.0,6.0,98,0.02,,,0.22,VWS V14.01,2013-08-05 13:00:00,
2013-08-05 08:03:00,73.9,73.3,30.04,SSE,147,0.0,0.0,98,0.00,,,0.22,VWS V14.01,2013-08-05 13:03:00,
2013-08-05 08:09:00,73.9,73.3,30.04,SSE,147,0.0,0.0,98,0.00,,,0.22,VWS V14.01,2013-08-05 13:09:00,
2013-08-05 08:13:00,73.9,73.3,30.04,SE,146,0.0,0.0,98,0.00,,,0.22,VWS V14.01,2013-08-05 13:13:00,
2013-08-05 08:19:00,73.9,73.3,30.04,SSE,148,0.0,0.0,98,0.00,,,0.22,VWS V14.01,2013-08-05 13:19:00,
2013-08-05 08:24:00,74.0,73.4,30.03,SSE,148,0.0,1.0,98,0.00,,,0.22,VWS V14.01,2013-08-05 13:24:00,
2013-08-05 08:29:00,74.1,73.5,30.03,SSE,167,1.5,2.0,98,0.00,,,0.22,VWS V14.01,2013-08-05 13:29:00,
2013-08-05 08:37:00,74.4,73.5,30.04,SSE,165,0.0,0.0,97,0.00,,,0.22,VWS V14.01,2013-08-05 13:37:00,
2013-08-05 08:42:00,74.5,73.9,30.04,SSE,165,0.0,0.0,98,0.00,,,0.22,VWS V14.01,2013-08-05 13:42:00,
2013-08-05 08:47:00,74.6,73.7,30.03,SSE,165,0.0,0.0,97,0.00,,,0.22,VWS V14.01,2013-08-05 13:47:00,
2013-08-05 08:52:00,74.6,74.0,30.03,SSE,158,3.0,3.0,98,0.00,,,0.22,VWS V14.01,2013-08-05 13:52:00,
2013-08-05 08:57:00,74.6,73.7,30.03,SSE,162,0.0,2.0,97,0.00,,,0.22,VWS V14.01,2013-08-05 13:57:00,
2013-08-05 09:00:00,73.9,73.3,30.04,SE,146,0.0,6.0,98,0.02,,,0.22,VWS V15.00,2013-08-05 14:00:00,
2013-08-05 09:03:00,74.8,73.9,30.03,SSE,167,0.0,3.0,97,0.00,,,0.22,VWS V14.01,2013-08-05 14:03:00,
2013-08-05 09:08:00,75.0,74.1,30.03,SSW,212,0.0,3.0,97,0.00,,,0.22,VWS V14.01,2013-08-05 14:08:00,
2013-08-05 09:13:00,75.5,74.6,30.02,SSW,204,0.0,3.0,97,0.00,,,0.22,VWS V14.01,2013-08-05 14:13:00,
2013-08-05 09:17:00,76.0,74.8,30.02,SSE,166,0.0,3.0,96,0.00,,,0.22,VWS V14.01,2013-08-05 14:17:00,
2013-08-05 09:23:00,76.4,74.9,30.02,SW,228,1.5,4.0,95,0.00,,,0.22,VWS V14.01,2013-08-05 14:23:00,
2013-08-05 09:27:00,77.0,75.5,30.02,SSE,155,0.0,4.0,95,0.00,,,0.22,VWS V14.01,2013-08-05 14:27:00,
2013-08-05 09:33:00,77.9,75.7,30.02,SSW,209,1.5,4.0,93,0.00,,,0.22,VWS V14.01,2013-08-05 14:33:00,
2013-08-05 09:38:00,78.8,76.3,30.02,South,173,0.0,4.0,92,0.00,,,0.22,VWS V14.01,2013-08-05 14:38:00,
2013-08-05 09:43:00,79.6,76.4,30.02,SSE,164,1.5,4.0,90,0.00,,,0.22,VWS V14.01,2013-08-05 14:43:00,
2013-08-05 09:48:00,80.3,76.8,30.02,SE,136,4.5,7.0,89,0.00,,,0.22,VWS V14.01,2013-08-05 14:48:00,
2013-08-05 09:52:00,80.4,76.2,30.02,SSE,161,3.0,7.0,87,0.00,,,0.22,VWS V14.01,2013-08-05 14:52:00,
2013-08-05 09:58:00,80.0,75.8,30.02,SSW,193,1.5,7.0,87,0.00,,,0.22,VWS V14.01,2013-08-05 14:58:00,
2013-08-05 10:00:00,79.9,75.7,30.02,SSE,167,3.0,7.0,87,0.00,,,0.22,VWS V14.01,2013-08-05 15:00:00,
2013-08-05 10:03:00,79.7,75.5,30.02,SSE,150,3.0,6.0,87,0.00,,,0.22,VWS V14.01,2013-08-05 15:03:00,
2013-08-05 10:08:00,79.4,75.2,30.02,South,180,1.5,6.0,87,0.00,,,0.22,VWS V14.01,2013-08-05 15:08:00,
2013-08-05 10:13:00,79.3,75.4,30.02,SSW,193,3.0,6.0,88,0.00,,,0.22,VWS V14.01,2013-08-05 15:13:00,
2013-08-05 10:18:00,79.7,75.8,30.02,SE,142,3.0,6.0,88,0.00,,,0.22,VWS V14.01,2013-08-05 15:18:00,
2013-08-05 10:23:00,80.1,75.9,30.02,SE,141,1.5,6.0,87,0.00,,,0.22,VWS V14.01,2013-08-05 15:23:00,
2013-08-05 10:28:00,80.7,76.5,30.02,South,173,1.5,8.0,87,0.00,,,0.22,VWS V14.01,2013-08-05 15:28:00,
2013-08-05 10:33:00,81.4,76.8,30.02,SSW,205,4.5,8.0,86,0.00,,,0.22,VWS V14.01,2013-08-05 15:33:00,
2013-08-05 10:38:00,81.5,76.2,30.02,SSW,203,0.0,8.0,84,0.00,,,0.22,VWS V14.01,2013-08-05 15:38:00,
2013-08-05 10:43:00,81.6,76.3,30.02,SSE,166,7.5,8.0,84,0.00,,,0.22,VWS V14.01,2013-08-05 15:43:00,
2013-08-05 10:48:00,81.6,76.3,30.02,SSW,202,1.5,8.0,84,0.00,,,0.22,VWS V14.01,2013-08-05 15:48:00,
2013-08-05 10:53:00,81.7,76.4,30.02,SE,146,0.0,8.0,84,0.00,,,0.22,VWS V14.01,2013-08-05 15:53:00,
2013-08-05 10:58:00,82.4,77.1,30.02,SSE,164,4.5,8.0,84,0.00,,,0.22,VWS V14.01,2013-08-05 15:58:00,
2013-08-05 11:00:00,79.9,75.7,30.02,SSE,167,3.0,7.0,87,0.00,,,0.22,VWS V15.00,2013-08-05 16:00:00,
2013-08-05 11:03:00,83.2,76.8,30.02,SSW,208,4.5,9.0,81,0.00,,,0.22,VWS V14.01,2013-08-05 16:03:00,
2013-08-05 11:08:00,83.6,77.2,30.02,SE,145,4.5,9.0,81,0.00,,,0.22,VWS V14.01,2013-08-05 16:08:00,
2013-08-05 11:13:00,83.6,76.4,30.02,WSW,250,1.5,9.0,79,0.00,,,0.22,VWS V14.01,2013-08-05 16:13:00,
2013-08-05 11:18:00,83.7,77.6,30.02,SSW,203,3.0,9.0,82,0.00,,,0.22,VWS V14.01,2013-08-05 16:18:00,
2013-08-05 11:23:00,83.9,76.7,30.01,South,187,4.5,9.0,79,0.00,,,0.22,VWS V14.01,2013-08-05 16:23:00,
2013-08-05 11:28:00,83.9,76.7,30.01,SW,217,3.0,9.0,79,0.00,,,0.22,VWS V14.01,2013-08-05 16:28:00,
2013-08-05 11:33:00,84.1,76.5,30.01,South,181,12.0,12.0,78,0.00,,,0.22,VWS V14.01,2013-08-05 16:33:00,
2013-08-05 11:39:00,84.2,77.7,30.01,SSE,150,0.0,9.0,81,0.00,,,0.22,VWS V14.01,2013-08-05 16:39:00,
2013-08-05 11:44:00,84.7,77.8,30.01,South,184,1.5,9.0,80,0.00,,,0.22,VWS V14.01,2013-08-05 16:44:00,
2013-08-05 11:48:00,84.9,77.3,30.01,SSE,150,0.0,9.0,78,0.00,,,0.22,VWS V14.01,2013-08-05 16:48:00,
2013-08-05 11:54:00,85.2,77.9,30.01,SSW,201,1.5,9.0,79,0.00,,,0.22,VWS V14.01,2013-08-05 16:54:00,
2013-08-05 11:59:00,86.0,76.8,30.00,SSW,200,0.0,9.0,74,0.00,,,0.22,VWS V14.01,2013-08-05 16:59:00,
2013-08-05 12:00:00,86.1,77.2,30.00,SSW,198,1.5,9.0,75,0.00,,,0.22,VWS V14.01,2013-08-05 17:00:00,
2013-08-05 12:04:00,86.6,77.7,30.00,SSW,203,1.5,3.0,75,0.00,,,0.22,VWS V14.01,2013-08-05 17:04:00,
2013-08-05 12:09:00,87.4,77.3,30.00,SW,219,4.5,5.0,72,0.00,,,0.22,VWS V14.01,2013-08-05 17:09:00,
2013-08-05 12:14:00,87.3,76.3,30.00,WSW,240,1.5,6.0,70,0.00,,,0.22,VWS V14.01,2013-08-05 17:14:00,
2013-08-05 12:19:00,87.4,76.8,30.00,SSE,165,1.5,6.0,71,0.00,,,0.22,VWS V14.01,2013-08-05 17:19:00,
2013-08-05 12:24:00,87.7,76.3,30.00,SW,225,3.0,6.0,69,0.00,,,0.22,VWS V14.01,2013-08-05 17:24:00,
2013-08-05 12:29:00,87.7,77.1,30.00,SW,218,0.0,7.0,71,0.00,,,0.22,VWS V14.01,2013-08-05 17:29:00,
2013-08-05 12:34:00,87.9,77.8,30.00,WSW,238,3.0,7.0,72,0.00,,,0.22,VWS V14.01,2013-08-05 17:34:00,
2013-08-05 12:40:00,87.8,76.4,30.00,WSW,239,6.0,7.0,69,0.00,,,0.22,VWS V14.01,2013-08-05 17:40:00,
2013-08-05 12:44:00,87.4,76.8,30.00,SSW,195,0.0,7.0,71,0.00,,,0.22,VWS V14.01,2013-08-05 17:44:00,
2013-08-05 12:50:00,87.1,76.6,30.00,WSW,241,0.0,7.0,71,0.00,,,0.22,VWS V14.01,2013-08-05 17:50:00,
2013-08-05 12:54:00,87.0,76.9,30.00,SSW,204,0.0,7.0,72,0.00,,,0.22,VWS V14.01,2013-08-05 17:54:00,
2013-08-05 12:59:00,87.1,76.1,30.00,WSW,242,4.5,7.0,70,0.00,,,0.22,VWS V14.01,2013-08-05 17:59:00,
2013-08-05 13:00:00,86.1,77.2,30.00,SSW,198,1.5,9.0,75,0.00,,,0.22,VWS V15.00,2013-08-05 18:00:00,
2013-08-05 13:04:00,87.7,77.1,29.99,WSW,243,1.5,7.0,71,0.00,,,0.22,VWS V14.01,2013-08-05 18:04:00,
2013-08-05 13:09:00,88.2,77.2,29.99,SSE,162,4.5,7.0,70,0.00,,,0.22,VWS V14.01,2013-08-05 18:09:00,
2013-08-05 13:14:00,87.9,76.0,29.99,SSW,205,3.0,7.0,68,0.00,,,0.22,VWS V14.01,2013-08-05 18:14:00,
2013-08-05 13:19:00,87.6,76.6,29.99,South,184,3.0,10.0,70,0.00,,,0.22,VWS V14.01,2013-08-05 18:19:00,
2013-08-05 13:24:00,87.7,76.7,29.99,SW,233,9.0,10.0,70,0.00,,,0.22,VWS V14.01,2013-08-05 18:24:00,
2013-08-05 13:30:00,87.7,76.7,29.99,WSW,248,1.5,11.0,70,0.00,,,0.22,VWS V14.01,2013-08-05 18:30:00,
2013-08-05 13:35:00,88.4,76.9,29.99,South,173,4.5,11.0,69,0.00,,,0.22,VWS V14.01,2013-08-05 18:35:00,
2013-08-05 13:40:00,88.6,77.1,29.99,SW,219,4.5,11.0,69,0.00,,,0.22,VWS V14.01,2013-08-05 18:40:00,
2013-08-05 13:45:00,89.3,77.4,29.99,SSW,207,3.0,11.0,68,0.00,,,0.22,VWS V14.01,2013-08-05 18:45:00,
2013-08-05 13:50:00,89.6,78.1,29.99,SSE,162,1.5,11.0,69,0.00,,,0.22,VWS V14.01,2013-08-05 18:50:00,
2013-08-05 13:55:00,89.8,77.4,29.99,SW,222,9.0,11.0,67,0.00,,,0.22,VWS V14.01,2013-08-05 18:55:00,
2013-08-05 14:00:00,89.1,77.2,29.99,SSW,200,0.0,1.0,68,0.00,,,0.22,VWS V14.01,2013-08-05 19:00:00,
2013-08-05 14:05:00,88.8,76.9,29.98,SSW,204,3.0,6.0,68,0.00,,,0.22,VWS V14.01,2013-08-05 19:05:00,
2013-08-05 14:10:00,88.9,77.0,29.98,SSW,207,1.5,8.0,68,0.00,,,0.22,VWS V14.01,2013-08-05 19:10:00,
2013-08-05 14:15:00,89.1,77.6,29.98,SSW,205,3.0,8.0,69,0.00,,,0.22,VWS V14.01,2013-08-05 19:15:00,
2013-08-05 14:20:00,89.7,77.7,29.98,South,188,3.0,8.0,68,0.00,,,0.22,VWS V14.01,2013-08-05 19:20:00,
2013-08-05 14:25:00,89.9,77.0,29.98,SSW,205,3.0,8.0,66,0.00,,,0.22,VWS V14.01,2013-08-05 19:25:00,
2013-08-05 14:30:00,90.1,77.2,29.98,South,180,3.0,8.0,66,0.00,,,0.22,VWS V14.01,2013-08-05 19:30:00,
2013-08-05 14:35:00,89.8,77.4,29.98,SSE,150,3.0,8.0,67,0.00,,,0.22,VWS V14.01,2013-08-05 19:35:00,
2013-08-05 14:40:00,89.6,77.6,29.98,SW,219,1.5,8.0,68,0.00,,,0.22,VWS V14.01,2013-08-05 19:40:00,
2013-08-05 14:45:00,89.7,77.3,29.98,South,188,4.5,8.0,67,0.00,,,0.22,VWS V14.01,2013-08-05 19:45:00,
2013-08-05 14:50:00,89.7,77.7,29.98,SSW,204,1.5,9.0,68,0.00,,,0.22,VWS V14.01,2013-08-05 19:50:00,
2013-08-05 14:55:00,89.7,77.3,29.97,SSW,205,6.0,9.0,67,0.00,,,0.22,VWS V14.01,2013-08-05 19:55:00,
2013-08-05 15:00:00,89.3,76.9,29.97,SSE,167,9.0,9.0,67,0.00,,,0.22,VWS V14.01,2013-08-05 20:00:00,
2013-08-05 15:05:00,89.2,76.8,29.97,SSW,193,1.5,9.0,67,0.00,,,0.22,VWS V14.01,2013-08-05 20:05:00,
2013-08-05 15:10:00,88.9,77.4,29.97,SSE,160,0.0,9.0,69,0.00,,,0.22,VWS V14.01,2013-08-05 20:10:00,
2013-08-05 15:15:00,88.8,77.3,29.97,SSE,168,3.0,9.0,69,0.00,,,0.22,VWS V14.01,2013-08-05 20:15:00,
2013-08-05 15:21:00,88.6,77.1,29.96,South,172,7.5,9.0,69,0.00,,,0.22,VWS V14.01,2013-08-05 20:21:00,
2013-08-05 15:26:00,88.6,78.0,29.96,WSW,247,1.5,9.0,71,0.00,,,0.22,VWS V14.01,2013-08-05 20:26:00,
2013-08-05 15:31:00,88.6,77.1,29.96,South,170,3.0,9.0,69,0.00,,,0.22,VWS V14.01,2013-08-05 20:31:00,
2013-08-05 15:36:00,89.1,77.6,29.96,SSW,192,1.5,9.0,69,0.00,,,0.22,VWS V14.01,2013-08-05 20:36:00,
2013-08-05 15:41:00,89.3,77.4,29.96,SSW,207,6.0,9.0,68,0.00,,,0.22,VWS V14.01,2013-08-05 20:41:00,
2013-08-05 15:46:00,89.4,77.9,29.96,SSE,155,4.5,9.0,69,0.00,,,0.22,VWS V14.01,2013-08-05 20:46:00,
2013-08-05 15:51:00,89.6,78.1,29.96,South,173,3.0,9.0,69,0.00,,,0.22,VWS V14.01,2013-08-05 20:51:00,
2013-08-05 15:56:00,89.7,77.3,29.96,South,188,4.5,9.0,67,0.00,,,0.22,VWS V14.01,2013-08-05 20:56:00,
2013-08-05 16:00:00,89.5,77.6,29.95,South,185,7.5,9.0,68,0.00,,,0.22,VWS V14.01,2013-08-05 21:00:00,
2013-08-05 16:01:00,89.4,77.0,29.95,SW,232,1.5,5.0,67,0.00,,,0.22,VWS V14.01,2013-08-05 21:01:00,
2013-08-05 16:06:00,89.3,77.4,29.95,SSW,192,1.5,7.0,68,0.00,,,0.22,VWS V14.01,2013-08-05 21:06:00,
2013-08-05 16:11:00,89.3,78.2,29.95,SE,127,0.0,7.0,70,0.00,,,0.22,VWS V14.01,2013-08-05 21:11:00,
2013-08-05 16:16:00,89.5,78.4,29.95,SSW,207,1.5,7.0,70,0.00,,,0.22,VWS V14.01,2013-08-05 21:16:00,
2013-08-05 16:21:00,89.5,78.0,29.95,SSW,211,1.5,7.0,69,0.00,,,0.22,VWS V14.01,2013-08-05 21:21:00,
2013-08-05 16:26:00,89.6,78.5,29.95,SSE,152,4.5,7.0,70,0.00,,,0.22,VWS V14.01,2013-08-05 21:26:00,
2013-08-05 16:31:00,89.9,78.4,29.95,SSW,195,4.5,7.0,69,0.00,,,0.22,VWS V14.01,2013-08-05 21:31:00,
2013-08-05 16:36:00,89.9,78.4,29.94,South,187,1.5,7.0,69,0.00,,,0.22,VWS V14.01,2013-08-05 21:36:00,
2013-08-05 16:42:00,89.7,78.6,29.94,South,169,1.5,7.0,70,0.00,,,0.22,VWS V14.01,2013-08-05 21:42:00,
2013-08-05 16:47:00,89.9,78.8,29.94,East,97,4.5,7.0,70,0.00,,,0.22,VWS V14.01,2013-08-05 21:47:00,
2013-08-05 16:52:00,89.7,78.2,29.94,SW,222,4.5,7.0,69,0.00,,,0.22,VWS V14.01,2013-08-05 21:52:00,
2013-08-05 16:57:00,89.8,77.8,29.94,SSE,163,3.0,7.0,68,0.00,,,0.22,VWS V14.01,2013-08-05 21:57:00,
2013-08-05 17:02:00,89.7,78.2,29.94,SSE,149,4.5,8.0,69,0.00,,,0.22,VWS V14.01,2013-08-05 22:02:00,
2013-08-05 17:07:00,89.6,78.1,29.94,SSW,204,3.0,8.0,69,0.00,,,0.22,VWS V14.01,2013-08-05 22:07:00,
2013-08-05 17:12:00,89.3,77.4,29.94,SSW,205,3.0,8.0,68,0.00,,,0.22,VWS V14.01,2013-08-05 22:12:00,
2013-08-05 17:17:00,89.2,78.1,29.94,SSE,153,3.0,8.0,70,0.00,,,0.22,VWS V14.01,2013-08-05 22:17:00,
2013-08-05 17:22:00,89.3,78.2,29.93,SE,139,3.0,8.0,70,0.00,,,0.22,VWS V14.01,2013-08-05 22:22:00,
2013-08-05 17:27:00,89.3,78.2,29.93,South,174,3.0,8.0,70,0.00,,,0.22,VWS V14.01,2013-08-05 22:27:00,
2013-08-05 17:32:00,89.1,78.0,29.93,SSW,201,1.5,8.0,70,0.00,,,0.22,VWS V14.01,2013-08-05 22:32:00,
2013-08-05 17:37:00,89.2,78.6,29.92,South,188,1.5,10.0,71,0.00,,,0.22,VWS V14.01,2013-08-05 22:37:00,
2013-08-05 17:42:00,89.3,78.7,29.92,South,188,6.0,10.0,71,0.00,,,0.22,VWS V14.01,2013-08-05 22:42:00,
2013-08-05 17:47:00,89.3,78.2,29.92,South,184,7.5,10.0,70,0.00,,,0.22,VWS V14.01,2013-08-05 22:47:00,
2013-08-05 17:52:00,89.6,78.9,29.92,South,174,4.5,10.0,71,0.00,,,0.22,VWS V14.01,2013-08-05 22:52:00,
2013-08-05 17:57:00,89.6,78.9,29.92,SSW,198,1.5,10.0,71,0.00,,,0.22,VWS V14.01,2013-08-05 22:57:00,
2013-08-05 18:00:00,89.6,78.5,29.92,SSW,195,1.5,10.0,70,0.00,,,0.22,VWS V14.01,2013-08-05 23:00:00,
2013-08-05 18:02:00,89.5,78.9,29.92,SSW,205,3.0,3.0,71,0.00,,,0.22,VWS V14.01,2013-08-05 23:02:00,
2013-08-05 18:07:00,89.1,78.9,29.92,SSE,165,0.0,4.0,72,0.00,,,0.22,VWS V14.01,2013-08-05 23:07:00,
2013-08-05 18:12:00,88.9,78.7,29.92,South,183,0.0,4.0,72,0.00,,,0.22,VWS V14.01,2013-08-05 23:12:00,
2013-08-05 18:17:00,88.8,79.0,29.92,SSE,160,4.5,7.0,73,0.00,,,0.22,VWS V14.01,2013-08-05 23:17:00,
2013-08-05 18:22:00,89.0,79.2,29.92,SSE,160,1.5,7.0,73,0.00,,,0.22,VWS V14.01,2013-08-05 23:22:00,
2013-08-05 18:27:00,88.9,79.1,29.92,SE,145,3.0,7.0,73,0.00,,,0.22,VWS V14.01,2013-08-05 23:27:00,
2013-08-05 18:32:00,88.7,78.5,29.92,SSE,149,3.0,7.0,72,0.00,,,0.22,VWS V14.01,2013-08-05 23:32:00,
2013-08-05 18:37:00,88.6,78.8,29.91,South,187,1.5,7.0,73,0.00,,,0.22,VWS V14.01,2013-08-05 23:37:00,
2013-08-05 18:42:00,88.4,78.7,29.91,South,184,1.5,7.0,73,0.00,,,0.22,VWS V14.01,2013-08-05 23:42:00,
2013-08-05 18:47:00,88.4,78.7,29.91,SSE,147,1.5,7.0,73,0.00,,,0.22,VWS V14.01,2013-08-05 23:47:00,
2013-08-05 18:52:00,88.5,78.3,29.91,SSE,162,0.0,9.0,72,0.00,,,0.22,VWS V14.01,2013-08-05 23:52:00,
2013-08-05 18:57:00,88.7,78.1,29.91,SE,136,4.5,9.0,71,0.00,,,0.22,VWS V14.01,2013-08-05 23:57:00,
2013-08-05 19:00:00,89.6,78.5,29.92,SSW,195,1.5,10.0,70,0.00,,,0.22,VWS V15.00,2013-08-06 00:00:00,
2013-08-05 19:02:00,88.6,78.0,29.91,South,187,0.0,9.0,71,0.00,,,0.22,VWS V14.01,2013-08-06 00:02:00,
2013-08-05 19:07:00,88.6,78.4,29.91,South,176,3.0,9.0,72,0.00,,,0.22,VWS V14.01,2013-08-06 00:07:00,
2013-08-05 19:12:00,88.4,78.2,29.91,SW,219,1.5,9.0,72,0.00,,,0.22,VWS V14.01,2013-08-06 00:12:00,
2013-08-05 19:18:00,88.2,78.0,29.91,SSW,205,0.0,9.0,72,0.00,,,0.22,VWS V14.01,2013-08-06 00:18:00,
2013-08-05 19:23:00,88.1,77.9,29.91,SSE,156,3.0,9.0,72,0.00,,,0.22,VWS V14.01,2013-08-06 00:23:00,
2013-08-05 19:28:00,87.9,78.2,29.91,South,183,1.5,9.0,73,0.00,,,0.22,VWS V14.01,2013-08-06 00:28:00,
2013-08-05 19:33:00,87.8,78.1,29.91,SSW,210,0.0,9.0,73,0.00,,,0.22,VWS V14.01,2013-08-06 00:33:00,
2013-08-05 19:38:00,87.6,78.3,29.91,SSE,155,4.5,9.0,74,0.00,,,0.22,VWS V14.01,2013-08-06 00:38:00,
2013-08-05 19:43:00,87.6,78.3,29.92,South,187,0.0,9.0,74,0.00,,,0.22,VWS V14.01,2013-08-06 00:43:00,
2013-08-05 19:48:00,87.4,78.1,29.92,South,169,0.0,9.0,74,0.00,,,0.22,VWS V14.01,2013-08-06 00:48:00,
2013-08-05 19:53:00,87.2,77.9,29.92,SSE,166,0.0,9.0,74,0.00,,,0.22,VWS V14.01,2013-08-06 00:53:00,
2013-08-05 19:58:00,87.0,77.7,29.92,SSE,168,0.0,9.0,74,0.00,,,0.22,VWS V14.01,2013-08-06 00:58:00,
2013-08-05 20:00:00,86.9,78.0,29.92,SSW,207,1.5,9.0,75,0.00,,,0.22,VWS V14.01,2013-08-06 01:00:00,
2013-08-05 20:03:00,86.8,77.5,29.92,South,169,1.5,4.0,74,0.00,,,0.22,VWS V14.01,2013-08-06 01:03:00,
2013-08-05 20:08:00,86.6,77.7,29.92,South,179,1.5,4.0,75,0.00,,,0.22,VWS V14.01,2013-08-06 01:08:00,
2013-08-05 20:13:00,86.5,78.0,29.92,SSW,204,3.0,4.0,76,0.00,,,0.22,VWS V14.01,2013-08-06 01:13:00,
2013-08-05 20:18:00,86.4,77.9,29.92,SSE,162,1.5,4.0,76,0.00,,,0.22,VWS V14.01,2013-08-06 01:18:00,
2013-08-05 20:24:00,86.3,78.2,29.92,South,181,3.0,4.0,77,0.00,,,0.22,VWS V14.01,2013-08-06 01:24:00,
2013-08-05 20:29:00,86.1,78.4,29.92,SE,145,1.5,4.0,78,0.00,,,0.22,VWS V14.01,2013-08-06 01:29:00,
2013-08-05 20:34:00,86.0,78.3,29.92,South,174,1.5,4.0,78,0.00,,,0.22,VWS V14.01,2013-08-06 01:34:00,
2013-08-05 20:39:00,85.7,78.4,29.92,South,185,1.5,4.0,79,0.00,,,0.22,VWS V14.01,2013-08-06 01:39:00,
2013-08-05 20:44:00,85.6,78.3,29.92,SE,139,4.5,4.5,79,0.00,,,0.22,VWS V14.01,2013-08-06 01:44:00,
2013-08-05 20:49:00,85.5,78.2,29.92,SE,129,1.5,4.0,79,0.00,,,0.22,VWS V14.01,2013-08-06 01:49:00,
2013-08-05 20:54:00,85.2,78.3,29.93,SE,139,0.0,4.0,80,0.00,,,0.22,VWS V14.01,2013-08-06 01:54:00,
2013-08-05 20:59:00,85.0,78.5,29.93,SSE,148,0.0,4.0,81,0.00,,,0.22,VWS V14.01,2013-08-06 01:59:00,
2013-08-05 21:00:00,86.9,78.0,29.92,SSW,207,1.5,9.0,75,0.00,,,0.22,VWS V15.00,2013-08-06 02:00:00,
2013-08-05 21:04:00,84.8,78.3,29.93,SSE,167,4.5,4.5,81,0.00,,,0.22,VWS V14.01,2013-08-06 02:04:00,
2013-08-05 21:09:00,84.7,78.2,29.93,SSE,149,1.5,4.0,81,0.00,,,0.22,VWS V14.01,2013-08-06 02:09:00,
2013-08-05 21:14:00,84.5,78.4,29.93,South,181,6.0,6.0,82,0.00,,,0.22,VWS V14.01,2013-08-06 02:14:00,
2013-08-05 21:19:00,84.4,78.3,29.93,SE,146,1.5,4.0,82,0.00,,,0.22,VWS V14.01,2013-08-06 02:19:00,
2013-08-05 21:24:00,84.3,78.2,29.93,SSE,147,1.5,6.0,82,0.00,,,0.22,VWS V14.01,2013-08-06 02:24:00,
2013-08-05 21:29:00,84.2,78.1,29.93,ESE,103,1.5,6.0,82,0.00,,,0.22,VWS V14.01,2013-08-06 02:29:00,
2013-08-05 21:34:00,84.2,78.1,29.93,ESE,118,1.5,6.0,82,0.00,,,0.22,VWS V14.01,2013-08-06 02:34:00,
2013-08-05 21:39:00,84.1,78.0,29.93,South,183,1.5,6.0,82,0.00,,,0.22,VWS V14.01,2013-08-06 02:39:00,
2013-08-05 21:44:00,84.0,77.9,29.93,SSE,158,1.5,6.0,82,0.00,,,0.22,VWS V14.01,2013-08-06 02:44:00,
2013-08-05 21:50:00,84.0,77.9,29.93,South,176,4.5,6.0,82,0.00,,,0.22,VWS V14.01,2013-08-06 02:50:00,
2013-08-05 21:55:00,83.9,77.8,29.93,SSE,155,1.5,6.0,82,0.00,,,0.22,VWS V14.01,2013-08-06 02:55:00,
2013-08-05 22:00:00,83.7,77.6,29.92,South,179,3.0,3.0,82,0.00,,,0.22,VWS V14.01,2013-08-06 03:00:00,
2013-08-05 22:05:00,83.6,77.5,29.92,SSE,163,1.5,6.0,82,0.00,,,0.22,VWS V14.01,2013-08-06 03:05:00,
2013-08-05 22:10:00,83.6,77.5,29.92,South,179,4.5,7.0,82,0.00,,,0.22,VWS V14.01,2013-08-06 03:10:00,
2013-08-05 22:15:00,83.5,77.4,29.92,SE,141,1.5,7.0,82,0.00,,,0.22,VWS V14.01,2013-08-06 03:15:00,
2013-08-05 22:20:00,83.3,77.2,29.92,SSE,159,6.0,7.0,82,0.00,,,0.22,VWS V14.01,2013-08-06 03:20:00,
2013-08-05 22:25:00,83.2,77.1,29.93,SSE,160,3.0,7.0,82,0.00,,,0.22,VWS V14.01,2013-08-06 03:25:00,
2013-08-05 22:30:00,83.2,77.1,29.93,SSW,193,1.5,7.0,82,0.00,,,0.22,VWS V14.01,2013-08-06 03:30:00,
2013-08-05 22:35:00,83.2,77.1,29.93,SSE,160,0.0,7.0,82,0.00,,,0.22,VWS V14.01,2013-08-06 03:35:00,
2013-08-05 22:40:00,83.2,77.1,29.93,SSE,162,1.5,7.0,82,0.00,,,0.22,VWS V14.01,2013-08-06 03:40:00,
2013-08-05 22:45:00,83.2,77.1,29.93,SE,136,6.0,7.0,82,0.00,,,0.22,VWS V14.01,2013-08-06 03:45:00,
2013-08-05 22:50:00,83.2,77.1,29.93,South,170,0.0,7.0,82,0.00,,,0.22,VWS V14.01,2013-08-06 03:50:00,
2013-08-05 22:55:00,83.1,77.0,29.93,SSE,168,1.5,7.0,82,0.00,,,0.22,VWS V14.01,2013-08-06 03:55:00,
2013-08-05 23:00:00,83.0,76.9,29.93,SSE,160,4.5,7.0,82,0.00,,,0.22,VWS V14.01,2013-08-06 04:00:00,
2013-08-05 23:01:00,83.0,76.9,29.93,SSE,160,3.0,7.0,82,0.00,,,0.22,VWS V14.01,2013-08-06 04:01:00,
2013-08-05 23:06:00,82.9,76.8,29.93,SSW,210,0.0,7.0,82,0.00,,,0.22,VWS V14.01,2013-08-06 04:06:00,
2013-08-05 23:11:00,82.9,76.8,29.93,SSE,152,3.0,7.0,82,0.00,,,0.22,VWS V14.01,2013-08-06 04:11:00,
2013-08-05 23:16:00,82.9,76.8,29.92,SSE,166,4.5,7.0,82,0.00,,,0.22,VWS V14.01,2013-08-06 04:16:00,
2013-08-05 23:21:00,82.9,76.8,29.92,South,191,4.5,7.0,82,0.00,,,0.22,VWS V14.01,2013-08-06 04:21:00,
2013-08-05 23:26:00,82.8,76.8,29.92,SSW,200,0.0,7.0,82,0.00,,,0.22,VWS V14.01,2013-08-06 04:26:00,
2013-08-05 23:31:00,82.8,76.8,29.92,South,177,4.5,7.0,82,0.00,,,0.22,VWS V14.01,2013-08-06 04:31:00,
2013-08-05 23:36:00,82.8,76.8,29.92,SSE,167,1.5,7.0,82,0.00,,,0.22,VWS V14.01,2013-08-06 04:36:00,
2013-08-05 23:41:00,82.7,77.0,29.92,South,172,4.5,7.0,83,0.00,,,0.22,VWS V14.01,2013-08-06 04:41:00,
2013-08-05 23:46:00,82.7,77.0,29.92,South,176,3.0,7.0,83,0.00,,,0.22,VWS V14.01,2013-08-06 04:46:00,
2013-08-05 23:51:00,82.7,77.0,29.93,SSE,160,3.0,7.0,83,0.00,,,0.22,VWS V14.01,2013-08-06 04:51:00,
2013-08-05 23:56:00,82.6,76.6,29.93,SE,134,3.0,7.0,82,0.00,,,0.22,VWS V14.01,2013-08-06 04:56:00,